Time;durP1;ratioP1;P1;durP2;ratioP2;P2;SDS_P1;SDS_P2;PMS_P1;PMS_P2;Temp;Humidity;BMP_temperature;BMP_pressure;BME280_temperature;BME280_humidity;BME280_pressure;Samples;Min_cycle;Max_cycle;Signal;HPM_P1;HPM_P2
2024/01/21 00:00:26;;;;;;;25.88;10.98;;;;;;;;;;5015548;28;20476;-61
2024/01/21 00:02:52;;;;;;;27.98;10.73;;;;;;;;;;5013626;28;20507;-61
2024/01/21 00:05:18;;;;;;;26.75;10.52;;;;;;;;;;5016975;28;20380;-62
2024/01/21 00:07:44;;;;;;;26.23;11.48;;;;;;;;;;5013546;28;20033;-58
2024/01/21 00:10:10;;;;;;;26.13;10.00;;;;;;;;;;5017534;28;20066;-60
2024/01/21 00:12:36;;;;;;;29.55;11.50;;;;;;;;;;5014488;28;20045;-60
2024/01/21 00:15:03;;;;;;;29.65;12.63;;;;;;;;;;5015548;28;20064;-57
2024/01/21 00:17:29;;;;;;;37.30;12.95;;;;;;;;;;5016686;28;20516;-58
2024/01/21 00:19:56;;;;;;;26.85;10.98;;;;;;;;;;5019210;28;20061;-60
2024/01/21 00:22:22;;;;;;;25.95;9.70;;;;;;;;;;5016312;28;20025;-58
2024/01/21 00:24:48;;;;;;;25.70;10.95;;;;;;;;;;5017973;28;20045;-57
2024/01/21 00:27:14;;;;;;;32.35;11.15;;;;;;;;;;5020362;28;20037;-59
2024/01/21 00:29:40;;;;;;;25.92;12.32;;;;;;;;;;5021897;28;20053;-62
2024/01/21 00:32:06;;;;;;;29.77;11.75;;;;;;;;;;5017764;28;20433;-59
2024/01/21 00:34:32;;;;;;;35.83;12.55;;;;;;;;;;5018586;28;20396;-60
2024/01/21 00:36:58;;;;;;;33.22;12.65;;;;;;;;;;5015722;28;20026;-62
2024/01/21 00:39:23;;;;;;;33.72;12.55;;;;;;;;;;5019940;28;20033;-59
2024/01/21 00:41:49;;;;;;;37.67;13.32;;;;;;;;;;5014722;28;20425;-57
2024/01/21 00:44:16;;;;;;;32.20;12.25;;;;;;;;;;5020090;28;20025;-58
2024/01/21 00:46:42;;;;;;;31.67;12.27;;;;;;;;;;5018378;28;20507;-58
2024/01/21 00:49:08;;;;;;;33.55;14.10;;;;;;;;;;5021901;28;20021;-58
2024/01/21 00:51:33;;;;;;;35.53;13.82;;;;;;;;;;5018071;28;20480;-56
2024/01/21 00:53:59;;;;;;;35.47;14.30;;;;;;;;;;5020211;28;20034;-57
2024/01/21 00:56:25;;;;;;;34.70;13.20;;;;;;;;;;5018461;28;20104;-58
2024/01/21 00:58:51;;;;;;;37.13;14.18;;;;;;;;;;5025251;28;20029;-61
2024/01/21 01:01:17;;;;;;;32.35;13.95;;;;;;;;;;5014576;28;20030;-60
2024/01/21 01:03:44;;;;;;;34.38;13.65;;;;;;;;;;5014473;28;20030;-60
2024/01/21 01:06:10;;;;;;;41.92;13.90;;;;;;;;;;5016574;28;20077;-59
2024/01/21 01:08:36;;;;;;;37.30;13.80;;;;;;;;;;5018456;28;20439;-59
2024/01/21 01:11:02;;;;;;;38.35;14.75;;;;;;;;;;5020114;28;20042;-59
2024/01/21 01:13:28;;;;;;;34.83;15.35;;;;;;;;;;5018713;28;20042;-60
2024/01/21 01:15:54;;;;;;;38.50;13.20;;;;;;;;;;5016617;28;20034;-57
2024/01/21 01:18:20;;;;;;;38.22;14.68;;;;;;;;;;5015346;28;20018;-55
2024/01/21 01:20:46;;;;;;;32.28;13.63;;;;;;;;;;5017378;28;20080;-56
2024/01/21 01:23:12;;;;;;;34.25;13.52;;;;;;;;;;5018597;28;20105;-59
2024/01/21 01:25:38;;;;;;;35.63;14.77;;;;;;;;;;5016888;28;20026;-60
2024/01/21 01:28:04;;;;;;;33.08;13.30;;;;;;;;;;5019092;28;20567;-55
2024/01/21 01:30:30;;;;;;;35.88;13.23;;;;;;;;;;5021977;28;20021;-58
2024/01/21 01:32:56;;;;;;;34.53;13.82;;;;;;;;;;5009875;28;20449;-56
2024/01/21 01:35:25;;;;;;;31.35;12.70;;;;;;;;;;5015528;28;20487;-57
2024/01/21 01:37:51;;;;;;;35.25;14.07;;;;;;;;;;5019476;28;20435;-61
2024/01/21 01:40:20;;;;;;;32.45;13.93;;;;;;;;;;5020037;28;20068;-59
2024/01/21 01:42:46;;;;;;;31.90;12.48;;;;;;;;;;5014021;28;20064;-59
2024/01/21 01:45:12;;;;;;;34.35;13.85;;;;;;;;;;5024491;28;20020;-58
2024/01/21 01:47:38;;;;;;;36.50;13.70;;;;;;;;;;5016326;28;20439;-58
2024/01/21 01:50:04;;;;;;;34.30;14.27;;;;;;;;;;5019684;28;20028;-59
2024/01/21 01:52:30;;;;;;;29.30;13.23;;;;;;;;;;5013909;28;20029;-58
2024/01/21 01:54:56;;;;;;;36.63;13.85;;;;;;;;;;5016355;28;20527;-57
2024/01/21 01:57:23;;;;;;;32.90;12.02;;;;;;;;;;5013919;28;20026;-59
2024/01/21 01:59:49;;;;;;;36.80;14.63;;;;;;;;;;5023439;28;20053;-59
2024/01/21 02:02:15;;;;;;;31.70;13.15;;;;;;;;;;5015142;28;20054;-58
2024/01/21 02:04:41;;;;;;;38.53;14.07;;;;;;;;;;5019292;28;20485;-59
2024/01/21 02:07:07;;;;;;;34.75;12.68;;;;;;;;;;5017058;28;20022;-59
2024/01/21 02:09:33;;;;;;;29.45;13.13;;;;;;;;;;5016603;28;20048;-59
2024/01/21 02:11:59;;;;;;;35.55;13.95;;;;;;;;;;5015417;28;20025;-61
2024/01/21 02:14:25;;;;;;;36.78;13.57;;;;;;;;;;5021501;28;20028;-58
2024/01/21 02:16:51;;;;;;;32.92;13.00;;;;;;;;;;5012918;28;20109;-59
2024/01/21 02:19:27;;;;;;;29.95;12.73;;;;;;;;;;5022139;28;20029;-56
2024/01/21 02:21:53;;;;;;;36.63;13.38;;;;;;;;;;5016408;28;20082;-59
2024/01/21 02:24:19;;;;;;;29.73;12.55;;;;;;;;;;5014565;28;20424;-65
2024/01/21 02:26:47;;;;;;;29.65;12.50;;;;;;;;;;5013065;28;20030;-57
2024/01/21 02:29:13;;;;;;;31.17;13.07;;;;;;;;;;5021124;28;20046;-59
2024/01/21 02:31:39;;;;;;;35.25;14.15;;;;;;;;;;5015295;28;20107;-59
2024/01/21 02:34:05;;;;;;;30.33;11.70;;;;;;;;;;5014219;28;20032;-57
2024/01/21 02:36:31;;;;;;;33.85;13.35;;;;;;;;;;5016086;28;20384;-59
2024/01/21 02:38:57;;;;;;;32.75;12.32;;;;;;;;;;5015873;28;20487;-59
2024/01/21 02:41:23;;;;;;;29.38;12.18;;;;;;;;;;5017063;28;20488;-57
2024/01/21 02:43:49;;;;;;;31.02;12.10;;;;;;;;;;5015626;28;20492;-59
2024/01/21 02:46:17;;;;;;;26.67;12.05;;;;;;;;;;5015688;28;20535;-59
2024/01/21 02:48:43;;;;;;;28.17;12.23;;;;;;;;;;5015210;28;20059;-54
2024/01/21 02:51:12;;;;;;;29.42;11.73;;;;;;;;;;5015598;28;20082;-58
2024/01/21 02:53:38;;;;;;;34.47;14.05;;;;;;;;;;5015375;28;20104;-57
2024/01/21 02:56:04;;;;;;;31.85;12.27;;;;;;;;;;5019597;28;20188;-58
2024/01/21 02:58:30;;;;;;;32.03;12.60;;;;;;;;;;5017168;28;20440;-58
2024/01/21 03:00:56;;;;;;;29.45;11.75;;;;;;;;;;5024920;28;20108;-58
2024/01/21 03:03:22;;;;;;;32.03;13.57;;;;;;;;;;5015437;28;20037;-57
2024/01/21 03:05:48;;;;;;;34.50;12.73;;;;;;;;;;5021458;28;20030;-60
2024/01/21 03:08:17;;;;;;;33.88;12.45;;;;;;;;;;5016666;28;20029;-60
2024/01/21 03:10:43;;;;;;;26.98;11.88;;;;;;;;;;5018733;28;20034;-58
2024/01/21 03:13:09;;;;;;;31.85;12.32;;;;;;;;;;5017867;28;20041;-58
2024/01/21 03:15:35;;;;;;;26.00;12.50;;;;;;;;;;5021945;28;20492;-58
2024/01/21 03:18:01;;;;;;;33.30;11.90;;;;;;;;;;5017371;28;20958;-59
2024/01/21 03:20:27;;;;;;;31.55;13.20;;;;;;;;;;5023355;28;20442;-59
2024/01/21 03:22:53;;;;;;;35.90;13.23;;;;;;;;;;5011647;28;20026;-58
2024/01/21 03:25:19;;;;;;;27.25;11.70;;;;;;;;;;5016950;28;20038;-59
2024/01/21 03:27:45;;;;;;;33.65;11.45;;;;;;;;;;5017510;28;20030;-60
2024/01/21 03:30:11;;;;;;;28.02;12.38;;;;;;;;;;5024228;28;20029;-59
2024/01/21 03:32:37;;;;;;;26.92;11.57;;;;;;;;;;5015599;28;20524;-57
2024/01/21 03:35:02;;;;;;;30.88;11.90;;;;;;;;;;5021717;28;20026;-58
2024/01/21 03:37:28;;;;;;;33.15;13.52;;;;;;;;;;5013953;28;20090;-58
2024/01/21 03:39:54;;;;;;;28.73;11.70;;;;;;;;;;5018202;28;20026;-58
2024/01/21 03:42:20;;;;;;;25.73;11.23;;;;;;;;;;5018607;28;20415;-58
2024/01/21 03:44:48;;;;;;;34.60;14.13;;;;;;;;;;5020662;28;20022;-58
2024/01/21 03:47:14;;;;;;;29.92;11.00;;;;;;;;;;5016340;28;20049;-59
2024/01/21 03:49:40;;;;;;;28.77;12.25;;;;;;;;;;5022448;28;20429;-59
2024/01/21 03:52:06;;;;;;;31.13;12.50;;;;;;;;;;5023169;28;20088;-56
2024/01/21 03:54:32;;;;;;;32.38;12.50;;;;;;;;;;5019038;28;20057;-54
2024/01/21 03:56:58;;;;;;;30.63;11.73;;;;;;;;;;5021472;28;20727;-57
2024/01/21 03:59:24;;;;;;;29.52;11.98;;;;;;;;;;5020777;28;20053;-59
2024/01/21 04:01:50;;;;;;;31.23;11.95;;;;;;;;;;5020440;28;20021;-58
2024/01/21 04:04:16;;;;;;;26.92;12.00;;;;;;;;;;5021204;28;20025;-59
2024/01/21 04:06:42;;;;;;;31.48;13.23;;;;;;;;;;5018021;28;20486;-58
2024/01/21 04:09:09;;;;;;;31.13;11.75;;;;;;;;;;5021607;28;20380;-59
2024/01/21 04:11:35;;;;;;;38.33;13.27;;;;;;;;;;5024107;28;20033;-58
2024/01/21 04:14:01;;;;;;;26.77;11.88;;;;;;;;;;5020312;28;20030;-57
2024/01/21 04:16:27;;;;;;;27.35;12.35;;;;;;;;;;5024379;28;20036;-59
2024/01/21 04:18:53;;;;;;;29.33;11.48;;;;;;;;;;5015335;28;20033;-59
2024/01/21 04:21:19;;;;;;;31.45;12.02;;;;;;;;;;5024294;28;20079;-58
2024/01/21 04:23:45;;;;;;;32.47;12.65;;;;;;;;;;5017921;28;20389;-56
2024/01/21 04:26:11;;;;;;;29.75;12.50;;;;;;;;;;5015870;28;20034;-58
2024/01/21 04:28:37;;;;;;;30.52;12.27;;;;;;;;;;5017381;28;20069;-57
2024/01/21 04:31:03;;;;;;;31.58;12.00;;;;;;;;;;5024992;28;20033;-56
2024/01/21 04:33:29;;;;;;;31.25;12.95;;;;;;;;;;5013351;28;20038;-58
2024/01/21 04:35:55;;;;;;;30.90;12.25;;;;;;;;;;5025149;28;20052;-58
2024/01/21 04:38:23;;;;;;;36.75;13.52;;;;;;;;;;5016057;28;20038;-59
2024/01/21 04:40:49;;;;;;;29.85;11.27;;;;;;;;;;5018419;28;20025;-58
2024/01/21 04:43:16;;;;;;;28.30;11.57;;;;;;;;;;5015055;28;20640;-59
2024/01/21 04:45:41;;;;;;;27.00;11.20;;;;;;;;;;5022221;28;20480;-58
2024/01/21 04:48:07;;;;;;;30.38;11.73;;;;;;;;;;5014827;28;20052;-57
2024/01/21 04:50:33;;;;;;;30.45;12.68;;;;;;;;;;5021817;28;20136;-58
2024/01/21 04:52:59;;;;;;;29.58;10.98;;;;;;;;;;5016127;28;20686;-56
2024/01/21 04:55:25;;;;;;;30.30;12.20;;;;;;;;;;5024236;28;20439;-56
2024/01/21 04:57:51;;;;;;;27.77;10.80;;;;;;;;;;5014014;28;20057;-60
2024/01/21 05:00:18;;;;;;;28.73;11.07;;;;;;;;;;5022203;28;20037;-60
2024/01/21 05:02:44;;;;;;;24.45;10.82;;;;;;;;;;5014123;28;20439;-60
2024/01/21 05:05:10;;;;;;;26.13;10.60;;;;;;;;;;5020890;28;20022;-60
2024/01/21 05:07:36;;;;;;;27.33;11.63;;;;;;;;;;5019637;28;20044;-59
2024/01/21 05:10:03;;;;;;;23.55;9.00;;;;;;;;;;5023629;28;20097;-58
2024/01/21 05:12:29;;;;;;;24.30;9.35;;;;;;;;;;5018166;28;20025;-60
2024/01/21 05:14:55;;;;;;;22.77;9.38;;;;;;;;;;5019484;28;20029;-59
2024/01/21 05:17:22;;;;;;;24.13;8.95;;;;;;;;;;5014083;28;20026;-58
2024/01/21 05:19:47;;;;;;;26.27;10.63;;;;;;;;;;5016382;28;20033;-60
2024/01/21 05:22:13;;;;;;;23.33;9.55;;;;;;;;;;5017118;28;20025;-58
2024/01/21 05:24:39;;;;;;;25.02;9.30;;;;;;;;;;5016039;28;20090;-61
2024/01/21 05:27:05;;;;;;;25.98;9.70;;;;;;;;;;5015438;28;20033;-58
2024/01/21 05:29:31;;;;;;;30.42;10.93;;;;;;;;;;5017254;28;20107;-59
2024/01/21 05:31:57;;;;;;;21.52;9.20;;;;;;;;;;5014469;28;20033;-59
2024/01/21 05:34:23;;;;;;;22.88;9.68;;;;;;;;;;5019903;28;20029;-58
2024/01/21 05:36:49;;;;;;;29.55;9.95;;;;;;;;;;5017624;28;20037;-60
2024/01/21 05:39:15;;;;;;;22.10;9.93;;;;;;;;;;5018678;28;20076;-61
2024/01/21 05:41:41;;;;;;;25.10;10.75;;;;;;;;;;5009773;28;20036;-58
2024/01/21 05:44:07;;;;;;;29.02;9.50;;;;;;;;;;5018618;28;20162;-60
2024/01/21 05:46:34;;;;;;;24.50;9.70;;;;;;;;;;5023307;28;20025;-61
2024/01/21 05:49:00;;;;;;;28.45;10.18;;;;;;;;;;5015141;28;21469;-60
2024/01/21 05:51:25;;;;;;;23.88;10.00;;;;;;;;;;5015858;28;20064;-60
2024/01/21 05:53:51;;;;;;;25.75;10.60;;;;;;;;;;5014768;28;20447;-60
2024/01/21 05:56:18;;;;;;;30.17;10.20;;;;;;;;;;5019133;28;20394;-57
2024/01/21 05:58:44;;;;;;;28.17;9.02;;;;;;;;;;5015398;28;20385;-57
2024/01/21 06:01:10;;;;;;;24.65;10.05;;;;;;;;;;5016156;28;20034;-57
2024/01/21 06:03:36;;;;;;;19.27;8.55;;;;;;;;;;5013258;28;20036;-56
2024/01/21 06:06:03;;;;;;;23.17;8.95;;;;;;;;;;5018799;28;20049;-60
2024/01/21 06:08:29;;;;;;;23.90;9.02;;;;;;;;;;5012999;28;20033;-60
2024/01/21 06:10:55;;;;;;;24.50;9.85;;;;;;;;;;5022702;28;20022;-61
2024/01/21 06:13:21;;;;;;;23.63;8.88;;;;;;;;;;5014042;28;20396;-58
2024/01/21 06:15:47;;;;;;;26.05;9.80;;;;;;;;;;5019499;28;20426;-58
2024/01/21 06:18:13;;;;;;;22.95;9.73;;;;;;;;;;5014704;28;20061;-57
2024/01/21 06:20:38;;;;;;;22.55;10.15;;;;;;;;;;5020306;28;20045;-62
2024/01/21 06:23:04;;;;;;;25.27;10.00;;;;;;;;;;5016946;28;20029;-58
2024/01/21 06:25:30;;;;;;;27.40;10.10;;;;;;;;;;5017872;28;20049;-58
2024/01/21 06:27:57;;;;;;;23.13;9.95;;;;;;;;;;5012393;28;20030;-58
2024/01/21 06:30:23;;;;;;;30.90;10.65;;;;;;;;;;5019374;28;20464;-57
2024/01/21 06:32:49;;;;;;;26.83;9.63;;;;;;;;;;5013517;28;20058;-55
2024/01/21 06:35:15;;;;;;;29.40;10.02;;;;;;;;;;5022669;28;20013;-60
2024/01/21 06:37:41;;;;;;;24.30;9.95;;;;;;;;;;5010517;28;20022;-55
2024/01/21 06:40:07;;;;;;;21.35;9.77;;;;;;;;;;5021974;28;20071;-58
2024/01/21 06:42:33;;;;;;;23.75;10.48;;;;;;;;;;5011506;28;20056;-59
2024/01/21 06:44:59;;;;;;;23.30;9.85;;;;;;;;;;5018841;28;20053;-57
2024/01/21 06:47:25;;;;;;;17.63;8.38;;;;;;;;;;5016986;28;20024;-59
2024/01/21 06:49:51;;;;;;;25.50;9.95;;;;;;;;;;5014033;28;20022;-57
2024/01/21 06:52:17;;;;;;;25.52;8.80;;;;;;;;;;5012048;28;20022;-59
2024/01/21 06:54:43;;;;;;;25.92;8.68;;;;;;;;;;5014842;28;20045;-59
2024/01/21 06:57:09;;;;;;;23.88;9.18;;;;;;;;;;5010381;28;20025;-59
2024/01/21 06:59:35;;;;;;;20.35;8.65;;;;;;;;;;5009991;28;20053;-57
2024/01/21 07:02:01;;;;;;;18.15;9.00;;;;;;;;;;5011390;28;20065;-59
2024/01/21 07:04:27;;;;;;;22.42;10.10;;;;;;;;;;5009549;28;20029;-59
2024/01/21 07:06:53;;;;;;;17.70;9.40;;;;;;;;;;5009298;28;20029;-59
2024/01/21 07:09:19;;;;;;;24.90;9.10;;;;;;;;;;5010991;28;20097;-58
2024/01/21 07:11:46;;;;;;;21.88;9.18;;;;;;;;;;5010955;28;20060;-58
2024/01/21 07:14:12;;;;;;;21.92;8.82;;;;;;;;;;5009572;28;20022;-59
2024/01/21 07:16:38;;;;;;;20.40;8.65;;;;;;;;;;5025808;28;20079;-59
2024/01/21 07:19:04;;;;;;;25.17;8.90;;;;;;;;;;5010972;28;20026;-60
2024/01/21 07:21:30;;;;;;;21.00;8.90;;;;;;;;;;5026183;28;20348;-59
2024/01/21 07:23:56;;;;;;;30.38;9.18;;;;;;;;;;5013171;28;20149;-60
2024/01/21 07:26:27;;;;;;;18.58;8.05;;;;;;;;;;5012691;28;20967;-57
2024/01/21 07:28:53;;;;;;;22.15;8.95;;;;;;;;;;5016943;28;20357;-58
2024/01/21 07:31:19;;;;;;;20.80;8.77;;;;;;;;;;5021038;28;20041;-60
2024/01/21 07:33:45;;;;;;;24.23;9.48;;;;;;;;;;5015195;28;20034;-59
2024/01/21 07:36:11;;;;;;;22.55;9.30;;;;;;;;;;5027248;28;20022;-60
2024/01/21 07:38:37;;;;;;;25.45;9.35;;;;;;;;;;5013537;28;20053;-59
2024/01/21 07:41:03;;;;;;;23.27;9.43;;;;;;;;;;5015201;28;20546;-58
2024/01/21 07:43:32;;;;;;;23.20;9.23;;;;;;;;;;5014335;28;20046;-60
2024/01/21 07:45:58;;;;;;;23.85;9.27;;;;;;;;;;5015555;28;20109;-59
2024/01/21 07:48:24;;;;;;;22.15;9.80;;;;;;;;;;5013634;28;20054;-58
2024/01/21 07:50:50;;;;;;;21.50;9.38;;;;;;;;;;5015421;28;20021;-59
2024/01/21 07:53:19;;;;;;;23.65;9.80;;;;;;;;;;5013334;28;20026;-58
2024/01/21 07:55:46;;;;;;;24.15;9.18;;;;;;;;;;5014151;28;20022;-58
2024/01/21 07:58:15;;;;;;;25.52;8.63;;;;;;;;;;5015637;28;20114;-58
2024/01/21 08:00:41;;;;;;;22.08;9.30;;;;;;;;;;5013229;28;20029;-59
2024/01/21 08:03:07;;;;;;;21.63;9.07;;;;;;;;;;5013049;28;20021;-59
2024/01/21 08:05:33;;;;;;;22.50;9.38;;;;;;;;;;5013684;28;20072;-59
2024/01/21 08:07:59;;;;;;;21.63;9.25;;;;;;;;;;5030356;28;20022;-58
2024/01/21 08:10:25;;;;;;;22.42;9.50;;;;;;;;;;5018265;28;20022;-58
2024/01/21 08:12:51;;;;;;;21.70;10.95;;;;;;;;;;5013164;28;20492;-60
2024/01/21 08:15:17;;;;;;;18.20;9.18;;;;;;;;;;5014820;28;20497;-59
2024/01/21 08:17:43;;;;;;;20.67;8.70;;;;;;;;;;5015484;28;20030;-59
2024/01/21 08:20:09;;;;;;;18.90;8.70;;;;;;;;;;5015631;28;20082;-59
2024/01/21 08:22:35;;;;;;;21.58;9.00;;;;;;;;;;5014068;28;20108;-60
2024/01/21 08:25:01;;;;;;;18.33;8.65;;;;;;;;;;5015644;28;20029;-58
2024/01/21 08:27:27;;;;;;;23.05;9.65;;;;;;;;;;5013193;28;20037;-58
2024/01/21 08:29:53;;;;;;;20.65;9.45;;;;;;;;;;5017184;28;20024;-62
2024/01/21 08:32:19;;;;;;;22.23;9.57;;;;;;;;;;5014366;28;20493;-58
2024/01/21 08:34:45;;;;;;;27.63;9.98;;;;;;;;;;5013253;28;20498;-56
2024/01/21 08:37:11;;;;;;;22.52;9.32;;;;;;;;;;5012900;28;20462;-58
2024/01/21 08:39:37;;;;;;;23.02;9.25;;;;;;;;;;5015467;28;20072;-58
2024/01/21 08:42:03;;;;;;;23.67;10.25;;;;;;;;;;5013512;28;20447;-59
2024/01/21 08:44:29;;;;;;;24.05;10.07;;;;;;;;;;5013820;28;20069;-59
2024/01/21 08:46:56;;;;;;;22.52;10.02;;;;;;;;;;5014909;28;20052;-57
2024/01/21 08:49:22;;;;;;;24.48;9.57;;;;;;;;;;5014018;28;20014;-57
2024/01/21 08:51:48;;;;;;;24.13;10.57;;;;;;;;;;5012645;28;20037;-57
2024/01/21 08:54:14;;;;;;;25.77;9.82;;;;;;;;;;5013450;28;20057;-59
2024/01/21 08:56:40;;;;;;;27.00;10.05;;;;;;;;;;5014162;28;20101;-58
2024/01/21 08:59:06;;;;;;;22.55;9.85;;;;;;;;;;5017862;28;20115;-58
2024/01/21 09:01:32;;;;;;;31.02;12.00;;;;;;;;;;5020697;28;20025;-58
2024/01/21 09:03:58;;;;;;;32.38;10.77;;;;;;;;;;5014443;28;20018;-59
2024/01/21 09:06:24;;;;;;;24.73;10.68;;;;;;;;;;5013991;28;20018;-59
2024/01/21 09:08:53;;;;;;;25.25;11.50;;;;;;;;;;5016668;28;20029;-60
2024/01/21 09:11:20;;;;;;;22.33;10.70;;;;;;;;;;5016570;28;20423;-62
2024/01/21 09:13:46;;;;;;;26.60;11.90;;;;;;;;;;5013583;28;20080;-60
2024/01/21 09:16:19;;;;;;;28.85;10.63;;;;;;;;;;5018907;28;20085;-59
2024/01/21 09:18:46;;;;;;;21.73;9.60;;;;;;;;;;5014930;28;20022;-60
2024/01/21 09:21:12;;;;;;;25.75;10.43;;;;;;;;;;5016206;28;20153;-58
2024/01/21 09:23:38;;;;;;;24.88;10.10;;;;;;;;;;5014856;28;20488;-59
2024/01/21 09:26:04;;;;;;;22.75;10.25;;;;;;;;;;5015761;28;20021;-58
2024/01/21 09:28:30;;;;;;;21.52;10.50;;;;;;;;;;5013665;28;20061;-59
2024/01/21 09:30:56;;;;;;;21.77;9.57;;;;;;;;;;5017527;28;20025;-57
2024/01/21 09:33:22;;;;;;;22.63;9.95;;;;;;;;;;5014786;28;20036;-59
2024/01/21 09:35:49;;;;;;;24.75;9.77;;;;;;;;;;5015837;28;20013;-59
2024/01/21 09:38:18;;;;;;;22.13;10.43;;;;;;;;;;5012717;28;20053;-60
2024/01/21 09:40:44;;;;;;;20.83;9.85;;;;;;;;;;5014849;28;20022;-56
2024/01/21 09:43:12;;;;;;;23.42;9.27;;;;;;;;;;5014309;28;20034;-59
2024/01/21 09:45:41;;;;;;;22.38;10.80;;;;;;;;;;5010546;28;20034;-58
2024/01/21 09:48:07;;;;;;;23.67;9.98;;;;;;;;;;5015427;28;20021;-56
2024/01/21 09:50:34;;;;;;;21.10;9.80;;;;;;;;;;5014895;28;20022;-59
2024/01/21 09:53:00;;;;;;;25.80;9.90;;;;;;;;;;5014484;28;20101;-59
2024/01/21 09:55:26;;;;;;;19.90;8.68;;;;;;;;;;5013962;28;20053;-59
2024/01/21 09:57:53;;;;;;;20.38;9.73;;;;;;;;;;5012797;28;20026;-59
2024/01/21 10:00:20;;;;;;;22.58;9.68;;;;;;;;;;5017355;28;21329;-59
2024/01/21 10:02:46;;;;;;;17.42;8.35;;;;;;;;;;5013544;28;20049;-59
2024/01/21 10:05:13;;;;;;;17.85;8.52;;;;;;;;;;5016306;28;20029;-59
2024/01/21 10:07:39;;;;;;;23.02;8.95;;;;;;;;;;5014385;28;20030;-59
2024/01/21 10:10:06;;;;;;;18.40;8.43;;;;;;;;;;5015149;28;20528;-58
2024/01/21 10:12:33;;;;;;;17.85;8.95;;;;;;;;;;5014972;28;20021;-57
2024/01/21 10:14:59;;;;;;;26.23;11.00;;;;;;;;;;5015422;28;20042;-59
2024/01/21 10:17:25;;;;;;;24.55;11.00;;;;;;;;;;5015773;28;20160;-57
2024/01/21 10:19:53;;;;;;;18.15;9.40;;;;;;;;;;5011861;28;20022;-58
2024/01/21 10:22:22;;;;;;;17.98;8.60;;;;;;;;;;5015489;28;20087;-59
2024/01/21 10:24:49;;;;;;;17.27;8.52;;;;;;;;;;5014100;28;20018;-58
2024/01/21 10:27:15;;;;;;;17.58;8.48;;;;;;;;;;5013160;28;20032;-57
2024/01/21 10:29:42;;;;;;;26.95;9.40;;;;;;;;;;5015367;28;20053;-58
2024/01/21 10:32:11;;;;;;;20.58;9.57;;;;;;;;;;5009434;28;20045;-59
2024/01/21 10:34:40;;;;;;;21.90;9.55;;;;;;;;;;5012548;28;20487;-56
2024/01/21 10:37:07;;;;;;;21.25;9.57;;;;;;;;;;5016023;28;20120;-59
2024/01/21 10:39:35;;;;;;;17.45;8.20;;;;;;;;;;5007646;28;20029;-59
2024/01/21 10:42:01;;;;;;;20.85;8.82;;;;;;;;;;5015760;28;20030;-59
2024/01/21 10:44:28;;;;;;;21.27;9.55;;;;;;;;;;5013457;28;20025;-60
2024/01/21 10:46:55;;;;;;;18.80;8.70;;;;;;;;;;5016483;28;20018;-60
2024/01/21 10:49:21;;;;;;;19.35;8.98;;;;;;;;;;5014249;28;20048;-59
2024/01/21 10:51:47;;;;;;;22.77;9.05;;;;;;;;;;5016010;28;20516;-59
2024/01/21 10:54:13;;;;;;;25.73;9.52;;;;;;;;;;5010920;28;20064;-59
2024/01/21 10:56:40;;;;;;;20.67;9.27;;;;;;;;;;5017890;28;20113;-60
2024/01/21 10:59:06;;;;;;;21.05;9.25;;;;;;;;;;5018843;28;20034;-60
2024/01/21 11:01:33;;;;;;;15.80;9.02;;;;;;;;;;5018292;28;20026;-57
2024/01/21 11:04:03;;;;;;;22.42;9.25;;;;;;;;;;5021671;28;20078;-59
2024/01/21 11:06:29;;;;;;;24.60;10.02;;;;;;;;;;5015473;28;20057;-57
2024/01/21 11:08:55;;;;;;;20.20;9.20;;;;;;;;;;5015485;28;20473;-60
2024/01/21 11:11:22;;;;;;;21.35;10.32;;;;;;;;;;5013507;28;20061;-60
2024/01/21 11:13:49;;;;;;;20.85;9.85;;;;;;;;;;5019669;28;20042;-59
2024/01/21 11:16:30;;;;;;;21.17;9.32;;;;;;;;;;5018359;28;20025;-61
2024/01/21 11:18:59;;;;;;;21.95;10.00;;;;;;;;;;5015031;28;20102;-59
2024/01/21 11:21:29;;;;;;;18.95;9.50;;;;;;;;;;5012129;28;20539;-59
2024/01/21 11:24:13;;;;;;;18.58;9.32;;;;;;;;;;5024964;28;20494;-59
2024/01/21 11:26:43;;;;;;;22.02;9.50;;;;;;;;;;5013829;28;20021;-59
2024/01/21 11:29:22;;;;;;;27.02;10.52;;;;;;;;;;5015513;28;20026;-58
2024/01/21 11:31:51;;;;;;;18.55;8.95;;;;;;;;;;5020383;28;20026;-58
2024/01/21 11:34:17;;;;;;;18.70;9.32;;;;;;;;;;5022044;28;20509;-59
2024/01/21 11:36:44;;;;;;;22.05;9.82;;;;;;;;;;5016999;28;20396;-59
2024/01/21 11:39:10;;;;;;;22.38;9.57;;;;;;;;;;5019272;28;20025;-58
2024/01/21 11:41:41;;;;;;;24.63;9.40;;;;;;;;;;5024311;28;20029;-59
2024/01/21 11:44:27;;;;;;;23.58;8.45;;;;;;;;;;5015682;28;20045;-59
2024/01/21 11:46:54;;;;;;;22.00;9.30;;;;;;;;;;5017113;28;20547;-58
2024/01/21 11:49:20;;;;;;;21.85;9.75;;;;;;;;;;5018467;28;20057;-58
2024/01/21 11:51:46;;;;;;;21.95;9.70;;;;;;;;;;5013887;28;20096;-58
2024/01/21 11:54:12;;;;;;;23.02;9.05;;;;;;;;;;5021476;28;20057;-58
2024/01/21 11:56:39;;;;;;;20.10;9.45;;;;;;;;;;5024439;28;20022;-58
2024/01/21 11:59:09;;;;;;;20.77;9.27;;;;;;;;;;5015598;28;20036;-59
2024/01/21 12:01:35;;;;;;;23.33;9.45;;;;;;;;;;5017074;28;20095;-59
2024/01/21 12:04:02;;;;;;;19.83;8.70;;;;;;;;;;5016201;28;20531;-58
2024/01/21 12:06:28;;;;;;;20.13;9.55;;;;;;;;;;5011118;28;20026;-59
2024/01/21 12:08:54;;;;;;;18.85;8.82;;;;;;;;;;5021522;28;20435;-58
2024/01/21 12:11:20;;;;;;;23.08;8.70;;;;;;;;;;5027327;28;20083;-57
2024/01/21 12:13:46;;;;;;;18.85;8.68;;;;;;;;;;5017256;28;20030;-56
2024/01/21 12:16:13;;;;;;;20.27;9.20;;;;;;;;;;5026032;28;20091;-59
2024/01/21 12:18:42;;;;;;;21.85;8.27;;;;;;;;;;5025379;28;20372;-58
2024/01/21 12:21:12;;;;;;;18.02;8.48;;;;;;;;;;5026096;28;20133;-60
2024/01/21 12:23:42;;;;;;;18.60;9.10;;;;;;;;;;5008435;28;20458;-59
2024/01/21 12:26:09;;;;;;;15.75;7.97;;;;;;;;;;5021030;28;20033;-59
2024/01/21 12:28:35;;;;;;;17.67;7.18;;;;;;;;;;5014382;28;20025;-58
2024/01/21 12:31:01;;;;;;;18.45;8.20;;;;;;;;;;5017780;28;20034;-59
2024/01/21 12:33:27;;;;;;;16.13;7.72;;;;;;;;;;5018467;28;20593;-59
2024/01/21 12:35:53;;;;;;;23.75;8.30;;;;;;;;;;5018528;28;20101;-58
2024/01/21 12:38:19;;;;;;;20.88;8.02;;;;;;;;;;5018729;28;20112;-58
2024/01/21 12:40:45;;;;;;;26.40;9.50;;;;;;;;;;5015165;28;20037;-58
2024/01/21 12:43:16;;;;;;;18.30;8.10;;;;;;;;;;5017385;28;20041;-58
2024/01/21 12:45:42;;;;;;;15.52;7.38;;;;;;;;;;5014559;28;20369;-60
2024/01/21 12:48:08;;;;;;;14.85;7.00;;;;;;;;;;5016036;28;20033;-59
2024/01/21 12:50:34;;;;;;;18.52;8.75;;;;;;;;;;5017045;28;20018;-58
2024/01/21 12:53:00;;;;;;;11.75;5.70;;;;;;;;;;5019676;28;20021;-59
2024/01/21 12:55:26;;;;;;;12.80;5.88;;;;;;;;;;5019386;28;20084;-59
2024/01/21 12:57:52;;;;;;;13.23;5.65;;;;;;;;;;5016251;28;20022;-56
2024/01/21 13:00:18;;;;;;;18.17;7.47;;;;;;;;;;5020779;28;20034;-59
2024/01/21 13:02:44;;;;;;;14.35;6.78;;;;;;;;;;5016849;28;20407;-58
2024/01/21 13:05:10;;;;;;;15.40;8.05;;;;;;;;;;5019977;28;20037;-57
2024/01/21 13:07:36;;;;;;;14.25;6.28;;;;;;;;;;5016541;28;20101;-57
2024/01/21 13:10:03;;;;;;;12.38;6.80;;;;;;;;;;5018180;28;20034;-59
2024/01/21 13:12:29;;;;;;;19.25;7.03;;;;;;;;;;5012822;28;20650;-59
2024/01/21 13:14:55;;;;;;;17.13;7.93;;;;;;;;;;5018220;28;20105;-57
2024/01/21 13:17:21;;;;;;;16.20;6.93;;;;;;;;;;5019798;28;20029;-60
2024/01/21 13:19:47;;;;;;;14.15;6.75;;;;;;;;;;5017320;28;20042;-57
2024/01/21 13:22:13;;;;;;;16.52;7.25;;;;;;;;;;5015767;28;20100;-58
2024/01/21 13:24:39;;;;;;;15.55;6.88;;;;;;;;;;5016072;28;20048;-59
2024/01/21 13:27:11;;;;;;;14.30;6.47;;;;;;;;;;5018686;28;20022;-59
2024/01/21 13:32:23;;;;;;;;;;;;;;;;;;5013318;28;20053;-59
2024/01/21 13:34:49;;;;;;;13.65;7.25;;;;;;;;;;5015488;28;19914;-57
2024/01/21 13:37:15;;;;;;;16.85;7.72;;;;;;;;;;5020101;28;20103;-59
2024/01/21 13:39:41;;;;;;;16.08;8.45;;;;;;;;;;5014587;28;20451;-59
2024/01/21 13:42:07;;;;;;;16.10;6.28;;;;;;;;;;5018706;28;20112;-59
2024/01/21 13:44:33;;;;;;;13.48;6.00;;;;;;;;;;5013135;28;20057;-57
2024/01/21 13:47:00;;;;;;;11.90;6.53;;;;;;;;;;5017211;28;20504;-56
2024/01/21 13:49:26;;;;;;;15.38;7.20;;;;;;;;;;5017457;28;20100;-58
2024/01/21 13:51:52;;;;;;;15.07;6.80;;;;;;;;;;5019655;28;20492;-58
2024/01/21 13:54:19;;;;;;;14.48;6.78;;;;;;;;;;5013364;28;20030;-58
2024/01/21 13:56:46;;;;;;;13.50;6.72;;;;;;;;;;5016612;28;20026;-59
2024/01/21 13:59:12;;;;;;;12.35;6.57;;;;;;;;;;5016103;28;20593;-59
2024/01/21 14:01:38;;;;;;;16.73;6.78;;;;;;;;;;5017203;28;20033;-59
2024/01/21 14:04:05;;;;;;;14.10;6.72;;;;;;;;;;5015767;28;20174;-59
2024/01/21 14:06:30;;;;;;;13.98;6.35;;;;;;;;;;5019805;28;20388;-58
2024/01/21 14:08:56;;;;;;;13.52;6.45;;;;;;;;;;5015183;28;20022;-58
2024/01/21 14:11:22;;;;;;;13.48;6.78;;;;;;;;;;5019159;28;20057;-58
2024/01/21 14:13:48;;;;;;;14.52;7.00;;;;;;;;;;5010301;28;20045;-59
2024/01/21 14:16:14;;;;;;;22.30;7.10;;;;;;;;;;5017916;28;20022;-58
2024/01/21 14:18:40;;;;;;;12.05;6.63;;;;;;;;;;5011906;28;20049;-59
2024/01/21 14:21:06;;;;;;;16.05;7.15;;;;;;;;;;5019959;28;20037;-60